createdAt,value
2018-09-25T00:00:44.608Z,953.85
2018-09-25T00:01:45.118Z,953.9
2018-09-25T00:02:45.636Z,953.92
2018-09-25T00:03:46.435Z,953.95
2018-09-25T00:04:46.955Z,953.95
2018-09-25T00:05:48.029Z,954.02
2018-09-25T00:06:49.102Z,953.98
2018-09-25T00:07:50.449Z,954.02
2018-09-25T00:08:51.245Z,954
2018-09-25T00:09:52.032Z,953.94
2018-09-25T00:10:53.267Z,953.96
2018-09-25T00:11:54.612Z,953.95
2018-09-25T00:12:55.850Z,953.96
2018-09-25T00:13:56.359Z,953.97
2018-09-25T00:14:57.617Z,953.94
2018-09-25T00:15:59.003Z,953.97
2018-09-25T00:16:59.794Z,953.95
2018-09-25T00:18:00.862Z,953.95
2018-09-25T00:19:01.929Z,953.98
2018-09-25T00:20:02.727Z,953.98
2018-09-25T00:21:04.074Z,953.96
2018-09-25T00:22:04.866Z,953.99
2018-09-25T00:23:05.657Z,953.95
2018-09-25T00:24:06.288Z,954
2018-09-25T00:25:07.793Z,953.96
2018-09-25T00:26:08.419Z,954.04
2018-09-25T00:27:08.760Z,954.02
2018-09-25T00:28:09.548Z,954.02
2018-09-25T00:29:10.340Z,953.99
2018-09-25T00:30:11.682Z,953.99
2018-09-25T00:31:12.749Z,954.05
2018-09-25T00:32:14.089Z,953.99
2018-09-25T00:33:14.710Z,954.02
2018-09-25T00:34:15.512Z,954.02
2018-09-25T00:35:16.751Z,954.05
2018-09-25T00:36:18.092Z,954.03
2018-09-25T00:37:19.430Z,953.99
2018-09-25T00:38:19.939Z,954
2018-09-25T00:39:20.722Z,954.03
2018-09-25T00:40:21.954Z,953.97
2018-09-25T00:41:22.738Z,954.05
2018-09-25T00:42:23.811Z,954.04
2018-09-25T00:43:24.710Z,954.06
2018-09-25T00:44:25.220Z,954.08
2018-09-25T00:45:25.623Z,954.06
2018-09-25T00:46:26.130Z,954.08
2018-09-25T00:47:26.470Z,954.12
2018-09-25T00:48:27.536Z,954.07
2018-09-25T00:49:28.598Z,954.06
2018-09-25T00:50:29.496Z,954.04
2018-09-25T00:51:29.875Z,954.05
2018-09-25T00:52:30.661Z,954.05
2018-09-25T00:53:31.446Z,954.05
2018-09-25T00:54:32.235Z,954.08
2018-09-25T00:55:32.914Z,954.05
2018-09-25T00:56:33.980Z,954.05
2018-09-25T00:57:34.769Z,954.11
2018-09-25T00:58:35.839Z,954.1
2018-09-25T00:59:36.914Z,954.08
2018-09-25T01:00:37.577Z,954.1
2018-09-25T01:01:37.977Z,954.12
2018-09-25T01:02:39.044Z,954.15
2018-09-25T01:03:39.664Z,954.19
2018-09-25T01:04:40.451Z,954.18
2018-09-25T01:05:41.410Z,954.19
2018-09-25T01:06:42.205Z,954.14
2018-09-25T01:07:42.829Z,954.09
2018-09-25T01:08:43.337Z,954.05
2018-09-25T01:09:44.679Z,954.04
2018-09-25T01:10:45.187Z,954.06
2018-09-25T01:11:45.977Z,954.08
2018-09-25T01:12:46.769Z,954.05
2018-09-25T01:13:47.834Z,954.03
2018-09-25T01:14:48.176Z,954.02
2018-09-25T01:15:48.975Z,954.03
2018-09-25T01:16:49.759Z,954.02
2018-09-25T01:17:50.269Z,953.99
2018-09-25T01:18:50.777Z,954.06
2018-09-25T01:19:52.007Z,954.04
2018-09-25T01:20:53.073Z,954.1
2018-09-25T01:21:54.317Z,954.09
2018-09-25T01:22:55.108Z,954.1
2018-09-25T01:23:55.896Z,954.15
2018-09-25T01:24:56.404Z,954.15
2018-09-25T01:25:56.947Z,954.18
2018-09-25T01:26:57.731Z,954.19
2018-09-25T01:27:58.358Z,954.2
2018-09-25T01:28:59.253Z,954.18
2018-09-25T01:30:00.323Z,954.16
2018-09-25T01:31:01.551Z,954.17
2018-09-25T01:32:02.062Z,954.18
2018-09-25T01:33:02.964Z,954.16
2018-09-25T01:34:03.469Z,954.16
2018-09-25T01:35:04.533Z,954.15
2018-09-25T01:36:06.050Z,954.15
2018-09-25T01:37:06.566Z,954.13
2018-09-25T01:38:07.350Z,954.13
2018-09-25T01:39:07.693Z,954.1
2018-09-25T01:40:09.039Z,954.09
2018-09-25T01:41:10.110Z,954.09
2018-09-25T01:42:11.199Z,954.13
2018-09-25T01:43:12.430Z,954.15
2018-09-25T01:44:12.941Z,954.13
2018-09-25T01:45:13.447Z,954.13
2018-09-25T01:46:14.685Z,954.11
2018-09-25T01:47:15.472Z,954.1
2018-09-25T01:48:16.257Z,954.08
2018-09-25T01:49:17.045Z,954.08
2018-09-25T01:50:18.113Z,954.11
2018-09-25T01:51:18.622Z,954.09
2018-09-25T01:52:19.410Z,954.09
2018-09-25T01:53:20.200Z,954.09
2018-09-25T01:54:21.260Z,954.09
2018-09-25T01:55:21.765Z,954.06
2018-09-25T01:56:22.279Z,954.07
2018-09-25T01:57:23.065Z,954.08
2018-09-25T01:58:24.408Z,954.03
2018-09-25T01:59:24.749Z,954.02
2018-09-25T02:00:25.533Z,954.05
2018-09-25T02:01:26.323Z,954.08
2018-09-25T02:02:26.832Z,954.07
2018-09-25T02:03:27.621Z,954.05
2018-09-25T02:04:27.966Z,954.06
2018-09-25T02:05:29.029Z,954.04
2018-09-25T02:06:30.551Z,954.07
2018-09-25T02:07:31.058Z,954.01
2018-09-25T02:08:31.847Z,954.02
2018-09-25T02:09:32.635Z,954.02
2018-09-25T02:10:33.144Z,954.01
2018-09-25T02:11:33.762Z,954
2018-09-25T02:12:34.109Z,954
2018-09-25T02:13:34.893Z,954.02
2018-09-25T02:14:36.237Z,954.07
2018-09-25T02:15:37.024Z,954.09
2018-09-25T02:16:37.817Z,954.06
2018-09-25T02:17:38.608Z,954.07
2018-09-25T02:18:39.395Z,954.08
2018-09-25T02:19:40.376Z,954.07
2018-09-25T02:20:41.170Z,954.09
2018-09-25T02:21:41.612Z,954.12
2018-09-25T02:22:41.965Z,954.14
2018-09-25T02:23:42.750Z,954.12
2018-09-25T02:24:43.542Z,954.15
2018-09-25T02:25:44.343Z,954.1
2018-09-25T02:26:45.584Z,954.15
2018-09-25T02:27:46.089Z,954.15
2018-09-25T02:28:46.431Z,954.15
2018-09-25T02:29:47.217Z,954.15
2018-09-25T02:30:48.007Z,954.16
2018-09-25T02:31:48.632Z,954.15
2018-09-25T02:32:49.528Z,954.17
2018-09-25T02:33:50.873Z,954.14
2018-09-25T02:34:51.212Z,954.15
2018-09-25T02:35:51.720Z,954.16
2018-09-25T02:36:52.983Z,954.2
2018-09-25T02:37:53.881Z,954.21
2018-09-25T02:38:54.945Z,954.21
2018-09-25T02:39:55.733Z,954.18
2018-09-25T02:40:56.354Z,954.18
2018-09-25T02:41:57.699Z,954.2
2018-09-25T02:42:58.044Z,954.21
2018-09-25T02:43:58.945Z,954.24
2018-09-25T02:45:00.297Z,954.23
2018-09-25T02:46:01.359Z,954.21
2018-09-25T02:47:02.457Z,954.22
2018-09-25T02:48:03.077Z,954.22
2018-09-25T02:49:03.974Z,954.17
2018-09-25T02:50:05.320Z,954.15
2018-09-25T02:51:05.939Z,954.16
2018-09-25T02:52:06.291Z,954.13
2018-09-25T02:53:06.634Z,954.15
2018-09-25T02:54:07.143Z,954.12
2018-09-25T02:55:08.205Z,954.1
2018-09-25T02:56:09.267Z,954.11
2018-09-25T02:57:10.372Z,954.09
2018-09-25T02:58:11.162Z,954.09
2018-09-25T02:59:11.949Z,954.1
2018-09-25T03:00:13.014Z,954.08
2018-09-25T03:01:14.091Z,954.12
2018-09-25T03:02:15.439Z,954.14
2018-09-25T03:03:16.344Z,954.14
2018-09-25T03:04:16.969Z,954.14
2018-09-25T03:05:18.034Z,954.12
2018-09-25T03:06:18.818Z,954.12
2018-09-25T03:07:20.317Z,954.12
2018-09-25T03:08:21.392Z,954.13
2018-09-25T03:09:22.736Z,954.15
2018-09-25T03:10:23.361Z,954.13
2018-09-25T03:11:24.148Z,954.14
2018-09-25T03:12:25.490Z,954.11
2018-09-25T03:13:25.847Z,954.08
2018-09-25T03:14:26.640Z,954.12
2018-09-25T03:15:27.428Z,954.09
2018-09-25T03:16:28.493Z,954.09
2018-09-25T03:17:29.438Z,954.08
2018-09-25T03:18:30.220Z,954.06
2018-09-25T03:19:30.730Z,954.06
2018-09-25T03:20:31.091Z,954.06
2018-09-25T03:21:31.990Z,954.09
2018-09-25T03:22:33.135Z,954.06
2018-09-25T03:23:34.057Z,954.04
2018-09-25T03:24:35.133Z,953.98
2018-09-25T03:25:35.478Z,953.95
2018-09-25T03:26:36.587Z,953.94
2018-09-25T03:27:37.663Z,953.97
2018-09-25T03:28:39.010Z,953.95
2018-09-25T03:29:39.805Z,953.98
2018-09-25T03:30:41.144Z,953.99
2018-09-25T03:31:42.329Z,953.97
2018-09-25T03:32:42.958Z,953.96
2018-09-25T03:33:44.307Z,953.98
2018-09-25T03:34:45.215Z,953.99
2018-09-25T03:35:46.669Z,954
2018-09-25T03:36:47.460Z,954.01
2018-09-25T03:37:48.697Z,954
2018-09-25T03:38:49.786Z,953.97
2018-09-25T03:39:50.582Z,953.99
2018-09-25T03:40:51.752Z,953.99
2018-09-25T03:41:53.104Z,954
2018-09-25T03:42:53.443Z,954.01
2018-09-25T03:43:53.783Z,954.05
2018-09-25T03:44:54.684Z,954.04
2018-09-25T03:45:55.195Z,954.05
2018-09-25T03:46:55.530Z,954.05
2018-09-25T03:47:56.042Z,954.05
2018-09-25T03:48:57.219Z,954.11
2018-09-25T03:49:57.839Z,954.12
2018-09-25T03:50:58.901Z,954.14
2018-09-25T03:51:59.965Z,954.09
2018-09-25T03:53:01.025Z,954.08
2018-09-25T03:54:01.649Z,954.07
2018-09-25T03:55:02.156Z,954.1
2018-09-25T03:56:02.667Z,954.1
2018-09-25T03:57:03.468Z,954.07
2018-09-25T03:58:03.989Z,954.07
2018-09-25T03:59:05.053Z,954.08
2018-09-25T04:00:06.113Z,954.04
2018-09-25T04:01:06.897Z,954.08
2018-09-25T04:02:07.963Z,954.06
2018-09-25T04:03:09.028Z,954.08
2018-09-25T04:04:09.816Z,954.05
2018-09-25T04:05:10.882Z,954.04
2018-09-25T04:06:11.724Z,954.04
2018-09-25T04:07:12.711Z,954.04
2018-09-25T04:08:13.225Z,954.01
2018-09-25T04:09:13.567Z,954.04
2018-09-25T04:10:14.078Z,954.02
2018-09-25T04:11:14.711Z,954.05
2018-09-25T04:12:15.890Z,954.01
2018-09-25T04:13:16.955Z,954
2018-09-25T04:14:17.298Z,953.99
2018-09-25T04:15:17.952Z,954.01
2018-09-25T04:16:18.993Z,953.98
2018-09-25T04:17:20.335Z,953.98
2018-09-25T04:18:33.534Z,954.04
2018-09-25T04:19:34.878Z,954.03
2018-09-25T04:20:35.667Z,954.05
2018-09-25T04:21:36.566Z,954.03
2018-09-25T04:22:37.641Z,954.05
2018-09-25T04:23:38.541Z,954.06
2018-09-25T04:24:39.331Z,954.07
2018-09-25T04:25:40.393Z,954.05
2018-09-25T04:26:40.901Z,954.07
2018-09-25T04:27:41.249Z,954.06
2018-09-25T04:28:42.319Z,954.05
2018-09-25T04:29:42.873Z,954.01
2018-09-25T04:30:43.776Z,953.98
2018-09-25T04:31:44.390Z,954.08
2018-09-25T04:32:44.748Z,954.04
2018-09-25T04:33:45.811Z,953.99
2018-09-25T04:34:46.154Z,953.95
2018-09-25T04:35:47.214Z,953.94
2018-09-25T04:36:48.014Z,953.93
2018-09-25T04:37:48.350Z,953.93
2018-09-25T04:38:48.694Z,953.95
2018-09-25T04:39:49.956Z,953.95
2018-09-25T04:40:50.749Z,953.98
2018-09-25T04:41:51.368Z,954
2018-09-25T04:42:52.450Z,954.03
2018-09-25T04:43:53.245Z,954.03
2018-09-25T04:44:54.307Z,954.03
2018-09-25T04:45:55.097Z,954.03
2018-09-25T04:46:55.606Z,954.05
2018-09-25T04:47:56.791Z,954.06
2018-09-25T04:48:57.711Z,954.03
2018-09-25T04:49:58.225Z,954.06
2018-09-25T04:50:59.283Z,954.04
2018-09-25T04:51:59.799Z,954.04
2018-09-25T04:53:01.140Z,954.09
2018-09-25T04:54:01.762Z,954.04
2018-09-25T04:55:03.103Z,954.08
2018-09-25T04:56:03.887Z,954.08
2018-09-25T04:57:04.784Z,954.05
2018-09-25T04:58:06.128Z,954.09
2018-09-25T04:59:06.470Z,954.1
2018-09-25T05:00:07.427Z,954.06
2018-09-25T05:01:08.491Z,954.11
2018-09-25T05:02:09.282Z,954.1
2018-09-25T05:03:10.344Z,954.09
2018-09-25T05:04:11.408Z,954.08
2018-09-25T05:05:12.640Z,954.1
2018-09-25T05:06:13.982Z,954.07
2018-09-25T05:07:14.325Z,954.1
2018-09-25T05:08:15.388Z,954.07
2018-09-25T05:09:15.729Z,954.08
2018-09-25T05:10:16.689Z,954.1
2018-09-25T05:11:17.753Z,954.05
2018-09-25T05:12:18.861Z,954.1
2018-09-25T05:13:19.653Z,954.06
2018-09-25T05:14:20.160Z,954.1
2018-09-25T05:15:20.504Z,954.06
2018-09-25T05:16:21.125Z,954.07
2018-09-25T05:17:21.926Z,954.07
2018-09-25T05:18:22.993Z,954.08
2018-09-25T05:19:23.781Z,954.09
2018-09-25T05:20:24.302Z,954.06
2018-09-25T05:21:25.088Z,954.09
2018-09-25T05:22:25.872Z,954.09
2018-09-25T05:23:27.363Z,954.07
2018-09-25T05:24:27.606Z,954.06
2018-09-25T05:25:28.121Z,954.08
2018-09-25T05:26:29.189Z,954.09
2018-09-25T05:27:30.304Z,954.12
2018-09-25T05:28:31.092Z,954.12
2018-09-25T05:29:32.160Z,954.19
2018-09-25T05:30:32.678Z,954.14
2018-09-25T05:31:34.023Z,954.21
2018-09-25T05:32:34.374Z,954.21
2018-09-25T05:33:34.999Z,954.23
2018-09-25T05:34:35.508Z,954.23
2018-09-25T05:35:36.580Z,954.26
2018-09-25T05:36:37.201Z,954.25
2018-09-25T05:37:38.267Z,954.29
2018-09-25T05:38:38.889Z,954.28
2018-09-25T05:39:39.804Z,954.33
2018-09-25T05:40:40.623Z,954.31
2018-09-25T05:41:41.412Z,954.33
2018-09-25T05:42:42.480Z,954.38
2018-09-25T05:43:43.549Z,954.42
2018-09-25T05:44:44.616Z,954.39
2018-09-25T05:45:45.678Z,954.4
2018-09-25T05:46:46.913Z,954.44
2018-09-25T05:47:47.703Z,954.45
2018-09-25T05:48:49.591Z,954.47
2018-09-25T05:49:49.918Z,954.49
2018-09-25T05:50:50.744Z,954.53
2018-09-25T05:51:51.542Z,954.53
2018-09-25T05:52:52.615Z,954.59
2018-09-25T05:53:53.682Z,954.6
2018-09-25T05:54:54.512Z,954.63
2018-09-25T05:55:55.583Z,954.65
2018-09-25T05:56:55.981Z,954.68
2018-09-25T05:57:56.610Z,954.72
2018-09-25T05:58:57.684Z,954.73
2018-09-25T05:59:59.237Z,954.78
2018-09-25T06:01:00.550Z,954.8
2018-09-25T06:02:01.648Z,954.81
2018-09-25T06:03:02.388Z,954.83
2018-09-25T06:04:03.491Z,954.8
2018-09-25T06:05:04.247Z,954.86
2018-09-25T06:06:05.532Z,954.91
2018-09-25T06:07:06.088Z,954.85
2018-09-25T06:08:07.447Z,954.85
2018-09-25T06:09:08.414Z,954.84
2018-09-25T06:10:09.616Z,954.81
2018-09-25T06:11:10.420Z,954.87
2018-09-25T06:12:10.709Z,954.92
2018-09-25T06:13:11.341Z,954.92
2018-09-25T06:14:11.863Z,954.95
2018-09-25T06:15:13.127Z,954.91
2018-09-25T06:16:14.097Z,954.97
2018-09-25T06:17:14.616Z,954.97
2018-09-25T06:18:14.966Z,954.96
2018-09-25T06:19:16.203Z,954.96
2018-09-25T06:20:17.313Z,954.91
2018-09-25T06:21:18.738Z,954.87
2018-09-25T06:22:19.421Z,954.9
2018-09-25T06:23:20.494Z,954.89
2018-09-25T06:24:21.280Z,954.91
2018-09-25T06:25:21.922Z,954.9
2018-09-25T06:26:23.196Z,954.88
2018-09-25T06:27:24.262Z,954.87
2018-09-25T06:28:24.807Z,954.9
2018-09-25T06:29:25.711Z,954.93
2018-09-25T06:30:27.240Z,954.98
2018-09-25T06:31:28.159Z,955.01
2018-09-25T06:32:28.981Z,954.99
2018-09-25T06:33:29.772Z,955.01
2018-09-25T06:34:31.349Z,954.96
2018-09-25T06:35:31.756Z,955.02
2018-09-25T06:36:32.816Z,955.03
2018-09-25T06:37:33.616Z,955.06
2018-09-25T06:38:34.696Z,955.05
2018-09-25T06:39:35.766Z,955.06
2018-09-25T06:40:36.560Z,955.11
2018-09-25T06:41:37.808Z,955.12
2018-09-25T06:42:38.325Z,955.14
2018-09-25T06:43:39.121Z,955.15
2018-09-25T06:44:40.202Z,955.19
2018-09-25T06:45:41.374Z,955.16
2018-09-25T06:46:42.592Z,955.23
2018-09-25T06:47:43.944Z,955.19
2018-09-25T06:48:44.315Z,955.17
2018-09-25T06:49:45.702Z,955.19
2018-09-25T06:50:46.115Z,955.18
2018-09-25T06:51:46.711Z,955.23
2018-09-25T06:52:49.085Z,955.23
2018-09-25T06:53:49.363Z,955.22
2018-09-25T06:54:50.632Z,955.24
2018-09-25T06:55:51.495Z,955.24
2018-09-25T06:56:51.851Z,955.24
2018-09-25T06:57:53.556Z,955.26
2018-09-25T06:58:54.636Z,955.25
2018-09-25T06:59:55.293Z,955.26
2018-09-25T07:00:56.470Z,955.21
2018-09-25T07:01:57.195Z,955.23
2018-09-25T07:02:57.993Z,955.22
2018-09-25T07:03:58.344Z,955.24
2018-09-25T07:04:58.860Z,955.26
2018-09-25T07:05:59.381Z,955.24
2018-09-25T07:07:00.461Z,955.24
2018-09-25T07:08:00.980Z,955.25
2018-09-25T07:09:02.342Z,955.24
2018-09-25T07:10:03.622Z,955.29
2018-09-25T07:11:04.065Z,955.3
2018-09-25T07:12:05.035Z,955.3
2018-09-25T07:13:05.843Z,955.34
2018-09-25T07:14:06.639Z,955.39
2018-09-25T07:15:07.894Z,955.43
2018-09-25T07:16:08.244Z,955.44
2018-09-25T07:17:09.603Z,955.5
2018-09-25T07:18:12.128Z,955.52
2018-09-25T07:19:13.257Z,955.48
2018-09-25T07:20:13.972Z,955.46
2018-09-25T07:21:14.559Z,955.53
2018-09-25T07:22:15.600Z,955.49
2018-09-25T07:23:16.298Z,955.52
2018-09-25T07:24:17.179Z,955.58
2018-09-25T07:25:18.425Z,955.6
2018-09-25T07:26:19.221Z,955.59
2018-09-25T07:27:20.080Z,955.59
2018-09-25T07:28:21.615Z,955.62
2018-09-25T07:29:22.687Z,955.63
2018-09-25T07:30:24.236Z,955.59
2018-09-25T07:31:25.439Z,955.63
2018-09-25T07:32:26.680Z,955.66
2018-09-25T07:33:27.328Z,955.61
2018-09-25T07:34:28.144Z,955.61
2018-09-25T07:35:28.718Z,955.58
2018-09-25T07:36:29.624Z,955.56
2018-09-25T07:37:30.145Z,955.53
2018-09-25T07:38:30.754Z,955.61
2018-09-25T07:39:31.913Z,955.59
2018-09-25T07:40:33.177Z,955.55
2018-09-25T07:41:34.046Z,955.54
2018-09-25T07:42:35.170Z,955.56
2018-09-25T07:43:36.247Z,955.58
2018-09-25T07:44:37.049Z,955.58
2018-09-25T07:45:37.408Z,955.62
2018-09-25T07:46:38.768Z,955.67
2018-09-25T07:47:39.566Z,955.69
2018-09-25T07:48:40.639Z,955.67
2018-09-25T07:49:41.160Z,955.7
2018-09-25T07:50:42.234Z,955.68
2018-09-25T07:51:43.030Z,955.67
2018-09-25T07:52:44.002Z,955.73
2018-09-25T07:53:44.801Z,955.7
2018-09-25T07:54:45.692Z,955.66
2018-09-25T07:55:46.765Z,955.72
2018-09-25T07:56:47.839Z,955.71
2018-09-25T07:57:48.630Z,955.7
2018-09-25T07:58:49.706Z,955.65
2018-09-25T07:59:50.254Z,955.68
2018-09-25T08:00:51.049Z,955.66
2018-09-25T08:01:52.120Z,955.66
2018-09-25T08:02:52.947Z,955.65
2018-09-25T08:03:53.565Z,955.68
2018-09-25T08:04:54.647Z,955.68
2018-09-25T08:05:55.300Z,955.72
2018-09-25T08:06:56.093Z,955.71
2018-09-25T08:07:57.168Z,955.75
2018-09-25T08:08:58.299Z,955.77
2018-09-25T08:09:59.566Z,955.72
2018-09-25T08:11:00.746Z,955.76
2018-09-25T08:12:01.094Z,955.77
2018-09-25T08:13:02.062Z,955.76
2018-09-25T08:14:02.582Z,955.8
2018-09-25T08:15:03.380Z,955.81
2018-09-25T08:16:03.899Z,955.8
2018-09-25T08:17:04.414Z,955.84
2018-09-25T08:18:04.934Z,955.88
2018-09-25T08:19:05.573Z,955.9
2018-09-25T08:20:06.192Z,955.88
2018-09-25T08:21:06.717Z,955.91
2018-09-25T08:22:07.511Z,955.9
2018-09-25T08:23:08.064Z,955.94
2018-09-25T08:24:09.306Z,955.95
2018-09-25T08:25:09.658Z,955.88
2018-09-25T08:26:10.902Z,955.88
2018-09-25T08:27:11.351Z,955.91
2018-09-25T08:28:12.151Z,955.89
2018-09-25T08:29:12.673Z,955.9
2018-09-25T08:30:13.757Z,955.9
2018-09-25T08:31:14.139Z,955.94
2018-09-25T08:32:15.274Z,955.94
2018-09-25T08:33:16.176Z,955.94
2018-09-25T08:34:16.716Z,955.94
2018-09-25T08:35:17.511Z,955.95
2018-09-25T08:36:18.035Z,955.95
2018-09-25T08:37:18.829Z,956
2018-09-25T08:38:20.182Z,956.01
2018-09-25T08:39:21.015Z,956.02
2018-09-25T08:40:21.943Z,956.01
2018-09-25T08:41:23.016Z,956.02
2018-09-25T08:42:24.123Z,956.06
2018-09-25T08:43:24.844Z,956.01
2018-09-25T08:44:25.365Z,956.05
2018-09-25T08:45:25.883Z,956.04
2018-09-25T08:46:26.511Z,956.02
2018-09-25T08:47:27.749Z,956.05
2018-09-25T08:48:28.984Z,955.98
2018-09-25T08:49:29.779Z,956
2018-09-25T08:50:30.852Z,956
2018-09-25T08:51:31.644Z,955.97
2018-09-25T08:52:33.169Z,955.98
2018-09-25T08:53:34.661Z,955.99
2018-09-25T08:54:36.176Z,955.96
2018-09-25T08:55:37.413Z,955.95
2018-09-25T08:56:38.206Z,955.94
2018-09-25T08:57:39.004Z,955.96
2018-09-25T08:58:39.797Z,955.93
2018-09-25T08:59:40.409Z,955.96
2018-09-25T09:00:41.484Z,955.99
2018-09-25T09:01:42.562Z,955.95
2018-09-25T09:02:43.361Z,956.01
2018-09-25T09:03:44.162Z,956.03
2018-09-25T09:04:44.796Z,956
2018-09-25T09:05:45.805Z,955.97
2018-09-25T09:06:47.044Z,956.03
2018-09-25T09:07:47.562Z,956
2018-09-25T09:08:48.080Z,955.99
2018-09-25T09:09:48.440Z,955.96
2018-09-25T09:10:49.686Z,955.98
2018-09-25T09:11:50.335Z,955.98
2018-09-25T09:12:51.434Z,955.98
2018-09-25T09:13:51.956Z,956.03
2018-09-25T09:14:53.031Z,956
2018-09-25T09:15:53.547Z,956
2018-09-25T09:16:54.469Z,956
2018-09-25T09:17:55.693Z,956.01
2018-09-25T09:18:56.499Z,955.99
2018-09-25T09:19:57.351Z,956.02
2018-09-25T09:20:58.136Z,955.98
2018-09-25T09:21:58.491Z,955.99
2018-09-25T09:22:59.564Z,956.02
2018-09-25T09:24:00.112Z,956
2018-09-25T09:25:00.636Z,956.03
2018-09-25T09:26:01.125Z,956.04
2018-09-25T09:27:02.477Z,956.04
2018-09-25T09:28:03.269Z,956.01
2018-09-25T09:29:04.066Z,956.04
2018-09-25T09:30:04.933Z,956.01
2018-09-25T09:32:27.245Z,955.99
2018-09-25T09:33:28.169Z,955.94
2018-09-25T09:34:29.161Z,955.99
2018-09-25T09:35:30.297Z,956.02
2018-09-25T09:36:30.915Z,955.98
2018-09-25T09:37:31.277Z,956.02
2018-09-25T09:38:31.848Z,956.04
2018-09-25T09:39:33.004Z,956.07
2018-09-25T09:40:33.877Z,956.09
2018-09-25T09:41:35.049Z,956.13
2018-09-25T09:42:36.085Z,956.12
2018-09-25T09:43:36.611Z,956.08
2018-09-25T09:44:37.699Z,956.06
2018-09-25T09:45:38.954Z,956.1
2018-09-25T09:46:40.039Z,956.08
2018-09-25T09:47:40.678Z,956.08
2018-09-25T09:48:41.640Z,956.08
2018-09-25T09:49:43.030Z,956.07
2018-09-25T09:50:43.919Z,956.08
2018-09-25T09:51:44.721Z,956.03
2018-09-25T09:52:46.272Z,956.07
2018-09-25T09:53:47.520Z,956.08
2018-09-25T09:54:48.330Z,956.13
2018-09-25T09:55:48.940Z,956.14
2018-09-25T09:56:50.031Z,956.09
2018-09-25T09:57:51.093Z,956.1
2018-09-25T09:58:52.813Z,956.12
2018-09-25T09:59:53.657Z,956.15
2018-09-25T10:00:54.526Z,956.15
2018-09-25T10:01:55.254Z,956.12
2018-09-25T10:02:56.234Z,956.15
2018-09-25T10:03:57.313Z,956.17
2018-09-25T10:04:58.396Z,956.21
2018-09-25T10:05:59.491Z,956.16
2018-09-25T10:07:00.314Z,956.17
2018-09-25T10:08:00.967Z,956.2
2018-09-25T10:09:01.333Z,956.19
2018-09-25T10:10:02.706Z,956.17
2018-09-25T10:11:03.234Z,956.19
2018-09-25T10:12:03.780Z,956.18
2018-09-25T10:13:04.481Z,956.22
2018-09-25T10:14:04.854Z,956.21
2018-09-25T10:15:06.128Z,956.22
2018-09-25T10:16:07.143Z,956.24
2018-09-25T10:17:08.711Z,956.22
2018-09-25T10:18:09.679Z,956.25
2018-09-25T10:19:10.849Z,956.22
2018-09-25T10:20:11.940Z,956.27
2018-09-25T10:21:12.747Z,956.26
2018-09-25T10:22:13.492Z,956.23
2018-09-25T10:23:13.760Z,956.23
2018-09-25T10:24:14.843Z,956.2
2018-09-25T10:25:15.959Z,956.15
2018-09-25T10:26:17.226Z,956.15
2018-09-25T10:27:18.181Z,956.07
2018-09-25T10:28:19.283Z,956.02
2018-09-25T10:29:20.670Z,956.03
2018-09-25T10:30:21.480Z,955.98
2018-09-25T10:31:22.300Z,955.95
2018-09-25T10:32:23.238Z,955.95
2018-09-25T10:33:23.472Z,955.83
2018-09-25T10:34:24.603Z,955.89
2018-09-25T10:35:25.755Z,955.9
2018-09-25T10:36:26.566Z,955.9
2018-09-25T10:37:27.401Z,955.93
2018-09-25T10:38:28.704Z,955.93
2018-09-25T10:39:29.968Z,955.9
2018-09-25T10:40:30.804Z,955.92
2018-09-25T10:41:31.169Z,955.93
2018-09-25T10:42:31.983Z,955.95
2018-09-25T10:43:33.086Z,955.96
2018-09-25T10:44:34.089Z,955.95
2018-09-25T10:45:34.188Z,955.94
2018-09-25T10:46:34.553Z,955.97
2018-09-25T10:47:35.358Z,955.93
2018-09-25T10:48:35.888Z,955.87
2018-09-25T10:49:37.036Z,955.88
2018-09-25T10:50:38.127Z,955.82
2018-09-25T10:51:38.691Z,955.84
2018-09-25T10:52:39.776Z,955.78
2018-09-25T10:53:40.484Z,955.79
2018-09-25T10:54:41.293Z,955.76
2018-09-25T10:55:42.446Z,955.74
2018-09-25T10:56:43.853Z,955.77
2018-09-25T10:57:44.936Z,955.75
2018-09-25T10:58:45.746Z,955.74
2018-09-25T10:59:46.844Z,955.7
2018-09-25T11:00:47.699Z,955.72
2018-09-25T11:01:48.129Z,955.75
2018-09-25T11:02:48.742Z,955.79
2018-09-25T11:03:49.115Z,955.75
2018-09-25T11:04:49.481Z,955.76
2018-09-25T11:05:50.735Z,955.76
2018-09-25T11:06:51.984Z,955.72
2018-09-25T11:07:52.528Z,955.65
2018-09-25T11:08:53.780Z,955.65
2018-09-25T11:09:55.392Z,955.58
2018-09-25T11:10:56.550Z,955.59
2018-09-25T11:11:58.017Z,955.58
2018-09-25T11:12:58.825Z,955.6
2018-09-25T11:13:59.562Z,955.56
2018-09-25T11:15:00.147Z,955.51
2018-09-25T11:16:00.956Z,955.53
2018-09-25T11:17:01.766Z,955.5
2018-09-25T11:18:02.850Z,955.45
2018-09-25T11:19:03.380Z,955.46
2018-09-25T11:20:04.297Z,955.42
2018-09-25T11:21:05.018Z,955.44
2018-09-25T11:22:05.431Z,955.42
2018-09-25T11:23:06.259Z,955.38
2018-09-25T11:24:06.548Z,955.36
2018-09-25T11:25:07.615Z,955.34
2018-09-25T11:26:08.714Z,955.32
2018-09-25T11:27:09.093Z,955.32
2018-09-25T11:28:09.651Z,955.3
2018-09-25T11:29:10.244Z,955.3
2018-09-25T11:30:11.342Z,955.28
2018-09-25T11:31:12.148Z,955.28
2018-09-25T11:32:12.953Z,955.25
2018-09-25T11:33:14.479Z,955.25
2018-09-25T11:34:15.499Z,955.25
2018-09-25T11:35:17.272Z,955.21
2018-09-25T11:36:17.829Z,955.16
2018-09-25T11:37:18.739Z,955.2
2018-09-25T11:38:19.828Z,955.19
2018-09-25T11:39:20.351Z,955.22
2018-09-25T11:40:21.156Z,955.21
2018-09-25T11:41:22.672Z,955.18
2018-09-25T11:42:23.372Z,955.16
2018-09-25T11:43:24.760Z,955.14
2018-09-25T11:44:25.156Z,955.11
2018-09-25T11:45:26.526Z,955.12
2018-09-25T11:46:28.938Z,955.09
2018-09-25T11:47:29.570Z,955.06
2018-09-25T11:48:30.374Z,955.08
2018-09-25T11:49:31.509Z,955.08
2018-09-25T11:50:33.091Z,955.09
2018-09-25T11:51:35.181Z,955.14
2018-09-25T11:51:47.168Z,955.14
2018-09-25T11:51:58.656Z,955.15
2018-09-25T11:53:00.481Z,955.12
2018-09-25T11:54:01.568Z,955.14
2018-09-25T11:55:02.372Z,955.12
2018-09-25T11:56:02.741Z,955.07
2018-09-25T11:57:03.554Z,955.07
2018-09-25T11:58:04.197Z,955.1
2018-09-25T11:59:05.007Z,955.07
2018-09-25T12:00:05.542Z,955.1
2018-09-25T12:01:06.355Z,955.08
2018-09-25T12:02:07.258Z,955.11
2018-09-25T12:03:08.445Z,955.09
2018-09-25T12:04:09.544Z,955.07
2018-09-25T12:05:11.085Z,955.07
2018-09-25T12:06:11.895Z,955.06
2018-09-25T12:07:12.423Z,955.05
2018-09-25T12:08:12.785Z,954.99
2018-09-25T12:09:14.035Z,954.97
2018-09-25T12:10:14.838Z,954.94
2018-09-25T12:11:15.366Z,954.93
2018-09-25T12:12:16.005Z,954.89
2018-09-25T12:13:17.548Z,954.92
2018-09-25T12:14:19.126Z,954.92
2018-09-25T12:15:19.657Z,954.96
2018-09-25T12:16:20.299Z,954.98
2018-09-25T12:17:21.117Z,955.01
2018-09-25T12:18:22.265Z,954.98
2018-09-25T12:19:22.900Z,955.02
2018-09-25T12:20:23.997Z,955
2018-09-25T12:21:24.805Z,954.99
2018-09-25T12:22:25.171Z,954.95
2018-09-25T12:23:25.625Z,954.96
2018-09-25T12:24:27.284Z,954.98
2018-09-25T12:25:28.450Z,954.96
2018-09-25T12:26:29.188Z,954.94
2018-09-25T12:27:30.088Z,954.92
2018-09-25T12:28:31.336Z,954.9
2018-09-25T12:29:32.193Z,954.91
2018-09-25T12:30:33.444Z,954.89
2018-09-25T12:31:34.529Z,954.9
2018-09-25T12:32:35.805Z,954.86
2018-09-25T12:33:36.206Z,954.84
2018-09-25T12:34:37.359Z,954.87
2018-09-25T12:35:38.513Z,954.84
2018-09-25T12:36:39.595Z,954.84
2018-09-25T12:37:40.712Z,954.82
2018-09-25T12:38:41.315Z,954.86
2018-09-25T12:39:41.835Z,954.86
2018-09-25T12:40:42.384Z,954.86
2018-09-25T12:41:43.608Z,954.82
2018-09-25T12:42:44.491Z,954.85
2018-09-25T12:43:45.191Z,954.84